createdAt,value
2018-10-01T00:01:24.411Z,6.67
2018-10-01T00:03:51.851Z,7.73
2018-10-01T00:06:19.192Z,8.00
2018-10-01T00:08:46.663Z,7.80
2018-10-01T00:11:14.031Z,8.80
2018-10-01T00:13:41.381Z,8.73
2018-10-01T00:16:08.775Z,6.90
2018-10-01T00:18:36.205Z,7.90
2018-10-01T00:21:08.861Z,8.17
2018-10-01T00:23:36.403Z,7.67
2018-10-01T00:26:03.796Z,7.80
2018-10-01T00:28:31.501Z,7.80
2018-10-01T00:30:59.978Z,7.17
2018-10-01T00:33:28.998Z,8.07
2018-10-01T00:35:56.661Z,7.67
2018-10-01T00:38:24.085Z,7.40
2018-10-01T00:40:51.449Z,6.90
2018-10-01T00:43:18.840Z,7.70
2018-10-01T00:45:46.195Z,6.90
2018-10-01T00:48:13.585Z,8.97
2018-10-01T00:50:40.923Z,7.77
2018-10-01T00:53:08.311Z,7.40
2018-10-01T00:55:35.651Z,8.80
2018-10-01T00:58:03.012Z,7.50
2018-10-01T01:00:30.959Z,8.20
2018-10-01T01:02:59.828Z,6.73
2018-10-01T01:05:27.493Z,7.77
2018-10-01T01:07:54.902Z,6.90
2018-10-01T01:10:22.257Z,7.70
2018-10-01T01:12:49.640Z,7.50
2018-10-01T01:15:17.005Z,6.90
2018-10-01T01:17:44.350Z,7.50
2018-10-01T01:20:11.750Z,9.10
2018-10-01T01:22:39.078Z,6.77
2018-10-01T01:25:06.463Z,7.87
2018-10-01T01:27:33.844Z,7.90
2018-10-01T01:30:01.907Z,8.00
2018-10-01T01:32:30.650Z,8.03
2018-10-01T01:34:58.511Z,7.67
2018-10-01T01:37:26.110Z,6.60
2018-10-01T01:39:53.497Z,8.20
2018-10-01T01:42:20.889Z,6.93
2018-10-01T01:44:48.298Z,7.80
2018-10-01T01:47:15.632Z,7.00
2018-10-01T01:49:43.010Z,6.30
2018-10-01T01:52:10.350Z,7.00
2018-10-01T01:54:37.726Z,7.00
2018-10-01T01:57:05.060Z,6.67
2018-10-01T01:59:32.928Z,6.00
2018-10-01T02:02:01.678Z,6.90
2018-10-01T02:04:29.648Z,7.10
2018-10-01T02:06:57.134Z,6.10
2018-10-01T02:09:24.546Z,6.40
2018-10-01T02:11:51.880Z,8.40
2018-10-01T02:14:19.241Z,7.87
2018-10-01T02:16:46.622Z,6.50
2018-10-01T02:19:13.970Z,7.90
2018-10-01T02:21:41.310Z,6.90
2018-10-01T02:24:08.689Z,6.23
2018-10-01T02:26:36.170Z,7.00
2018-10-01T02:29:04.559Z,6.97
2018-10-01T02:31:32.713Z,6.27
2018-10-01T02:34:00.347Z,7.17
2018-10-01T02:36:27.666Z,6.07
2018-10-01T02:38:55.015Z,7.13
2018-10-01T02:41:22.369Z,6.00
2018-10-01T02:43:49.717Z,7.00
2018-10-01T02:46:17.067Z,6.50
2018-10-01T02:48:44.387Z,7.30
2018-10-01T02:51:11.732Z,6.83
2018-10-01T02:53:44.382Z,6.50
2018-10-01T02:56:11.747Z,6.33
2018-10-01T02:58:39.091Z,6.60
2018-10-01T03:01:06.795Z,5.80
2018-10-01T03:03:35.199Z,6.20
2018-10-01T03:06:03.055Z,5.80
2018-10-01T03:08:30.454Z,6.00
2018-10-01T03:10:57.831Z,6.50
2018-10-01T03:13:25.178Z,7.07
2018-10-01T03:15:52.594Z,6.53
2018-10-01T03:18:19.928Z,6.40
2018-10-01T03:20:47.275Z,5.30
2018-10-01T03:23:14.618Z,5.60
2018-10-01T03:25:41.982Z,6.30
2018-10-01T03:28:09.320Z,5.13
2018-10-01T03:30:37.092Z,5.27
2018-10-01T03:33:05.599Z,4.77
2018-10-01T03:35:33.366Z,5.47
2018-10-01T03:38:00.756Z,5.73
2018-10-01T03:40:28.111Z,5.80
2018-10-01T03:42:55.462Z,5.27
2018-10-01T03:45:22.831Z,4.73
2018-10-01T03:47:50.155Z,5.33
2018-10-01T03:50:17.529Z,5.53
2018-10-01T03:52:44.881Z,5.40
2018-10-01T03:55:12.304Z,5.37
2018-10-01T03:57:39.635Z,5.23
2018-10-01T04:00:07.634Z,5.90
2018-10-01T04:02:37.443Z,4.90
2018-10-01T04:05:05.827Z,4.43
2018-10-01T04:07:33.279Z,4.70
2018-10-01T04:10:00.675Z,4.50
2018-10-01T04:12:28.019Z,4.17
2018-10-01T04:14:55.374Z,7.87
2018-10-01T04:17:22.729Z,3.83
2018-10-01T04:19:50.087Z,5.80
2018-10-01T04:22:17.466Z,4.20
2018-10-01T04:24:44.789Z,4.53
2018-10-01T04:27:12.138Z,5.40
2018-10-01T04:29:39.493Z,5.83
2018-10-01T04:32:08.300Z,5.93
2018-10-01T04:34:36.545Z,5.17
2018-10-01T04:37:04.121Z,4.40
2018-10-01T04:39:31.516Z,5.40
2018-10-01T04:41:58.881Z,5.73
2018-10-01T04:44:26.256Z,6.67
2018-10-01T04:46:53.714Z,4.87
2018-10-01T04:49:20.981Z,6.20
2018-10-01T04:51:48.328Z,5.20
2018-10-01T04:54:22.414Z,5.73
2018-10-01T04:56:49.787Z,5.93
2018-10-01T04:59:17.794Z,6.20
2018-10-01T05:01:45.168Z,5.50
2018-10-01T05:04:12.524Z,4.90
2018-10-01T05:06:40.187Z,6.00
2018-10-01T05:09:08.909Z,5.50
2018-10-01T05:11:37.327Z,5.03
2018-10-01T05:14:05.188Z,6.20
2018-10-01T05:16:32.632Z,7.10
2018-10-01T05:18:59.962Z,7.03
2018-10-01T05:21:27.316Z,8.27
2018-10-01T05:23:54.647Z,8.97
2018-10-01T05:26:22.090Z,7.73
2018-10-01T05:28:49.437Z,10.50
2018-10-01T05:31:16.793Z,9.23
2018-10-01T05:33:44.168Z,10.23
2018-10-01T05:36:11.522Z,8.63
2018-10-01T05:38:39.675Z,9.53
2018-10-01T05:41:08.497Z,9.20
2018-10-01T05:43:37.241Z,10.67
2018-10-01T05:46:04.665Z,9.47
2018-10-01T05:48:32.350Z,9.73
2018-10-01T05:50:59.718Z,9.83
2018-10-01T05:53:27.080Z,9.67
2018-10-01T05:55:54.424Z,10.63
2018-10-01T05:58:21.808Z,10.13
2018-10-01T06:00:49.210Z,9.80
2018-10-01T06:03:16.587Z,9.10
2018-10-01T06:05:43.962Z,10.77
2018-10-01T06:08:11.451Z,11.40
2018-10-01T06:10:40.716Z,11.47
2018-10-01T06:13:09.733Z,12.10
2018-10-01T06:15:37.773Z,11.37
2018-10-01T06:18:05.304Z,12.07
2018-10-01T06:20:32.689Z,11.33
2018-10-01T06:23:00.075Z,12.73
2018-10-01T06:25:27.450Z,11.13
2018-10-01T06:27:54.826Z,12.83
2018-10-01T06:30:22.159Z,15.43
2018-10-01T06:32:49.527Z,13.20
2018-10-01T06:35:16.869Z,13.83
2018-10-01T06:37:44.234Z,12.47
2018-10-01T06:40:11.869Z,13.17
2018-10-01T06:42:40.212Z,15.23
2018-10-01T06:45:08.080Z,13.93
2018-10-01T06:47:35.500Z,14.10
2018-10-01T06:50:02.839Z,11.43
2018-10-01T06:52:30.218Z,13.87
2018-10-01T06:54:57.589Z,11.67
2018-10-01T06:57:24.955Z,15.77
2018-10-01T06:59:52.333Z,14.00
2018-10-01T07:02:19.664Z,12.73
2018-10-01T07:04:47.028Z,11.60
2018-10-01T07:07:14.366Z,13.97
2018-10-01T07:09:42.170Z,14.47
2018-10-01T07:12:10.546Z,13.00
2018-10-01T07:14:38.392Z,14.20
2018-10-01T07:17:05.913Z,12.93
2018-10-01T07:19:33.243Z,12.93
2018-10-01T07:22:00.603Z,14.53
2018-10-01T07:24:27.997Z,14.23
2018-10-01T07:26:55.318Z,14.13
2018-10-01T07:29:22.699Z,14.27
2018-10-01T07:31:50.033Z,13.50
2018-10-01T07:34:17.402Z,11.23
2018-10-01T07:36:44.739Z,12.90
2018-10-01T07:39:12.682Z,13.07
2018-10-01T07:41:41.338Z,13.03
2018-10-01T07:44:09.613Z,13.40
2018-10-01T07:46:37.149Z,9.83
2018-10-01T07:49:04.544Z,12.90
2018-10-01T07:51:31.875Z,12.90
2018-10-01T07:53:59.289Z,15.97
2018-10-01T07:56:26.907Z,15.40
2018-10-01T07:58:54.306Z,14.43
2018-10-01T08:01:21.657Z,15.60
2018-10-01T08:03:49.087Z,14.37
2018-10-01T08:06:16.458Z,16.17
2018-10-01T08:08:44.072Z,14.30
2018-10-01T08:11:12.498Z,12.73
2018-10-01T08:13:41.256Z,14.50
2018-10-01T08:16:08.837Z,14.07
2018-10-01T08:18:36.234Z,13.80
2018-10-01T08:21:03.587Z,13.87
2018-10-01T08:23:30.973Z,14.67
2018-10-01T08:25:58.344Z,14.60
2018-10-01T08:28:25.648Z,15.90
2018-10-01T08:30:53.011Z,14.27
2018-10-01T08:33:20.366Z,13.97
2018-10-01T08:35:47.730Z,14.20
2018-10-01T08:38:15.227Z,18.77
2018-10-01T08:40:43.744Z,18.20
2018-10-01T08:43:12.588Z,17.33
2018-10-01T08:45:40.249Z,16.47
2018-10-01T08:48:07.725Z,17.77
2018-10-01T08:50:43.895Z,17.50
2018-10-01T08:55:18.567Z,15.13
2018-10-01T08:57:45.902Z,15.00
2018-10-01T09:00:13.986Z,15.03
2018-10-01T09:02:42.066Z,15.33
2018-10-01T09:05:09.440Z,15.23
2018-10-01T09:07:36.799Z,14.20
2018-10-01T09:10:04.194Z,14.90
2018-10-01T09:12:31.542Z,16.00
2018-10-01T09:14:58.947Z,14.03
2018-10-01T09:17:26.316Z,14.07
2018-10-01T09:19:53.680Z,13.07
2018-10-01T09:22:21.024Z,14.07
2018-10-01T09:24:48.394Z,13.07
2018-10-01T09:27:15.740Z,13.10
2018-10-01T09:29:43.104Z,11.50
2018-10-01T09:32:11.759Z,12.63
2018-10-01T09:34:40.040Z,12.17
2018-10-01T09:37:07.408Z,11.93
2018-10-01T09:39:34.770Z,11.57
2018-10-01T09:42:02.189Z,11.73
2018-10-01T09:44:29.669Z,11.67
2018-10-01T09:46:57.020Z,11.43
2018-10-01T09:49:24.451Z,10.20
2018-10-01T09:51:51.828Z,10.67
2018-10-01T09:54:19.172Z,13.07
2018-10-01T09:56:46.544Z,10.80
2018-10-01T09:59:13.892Z,12.90
2018-10-01T10:01:43.113Z,10.93
2018-10-01T10:04:11.762Z,11.73
2018-10-01T10:06:39.587Z,10.97
2018-10-01T10:09:08.283Z,11.80
2018-10-01T10:11:35.717Z,11.57
2018-10-01T10:14:03.056Z,10.77
2018-10-01T10:16:30.477Z,10.43
2018-10-01T10:18:57.823Z,11.80
2018-10-01T10:21:25.279Z,9.83
2018-10-01T10:23:52.610Z,10.93
2018-10-01T10:26:20.000Z,9.17
2018-10-01T10:28:47.335Z,10.20
2018-10-01T10:31:14.708Z,10.80
2018-10-01T10:33:43.659Z,10.33
2018-10-01T10:36:12.634Z,12.23
2018-10-01T10:38:41.244Z,10.57
2018-10-01T10:41:08.608Z,10.10
2018-10-01T10:43:36.046Z,7.80
2018-10-01T10:46:03.452Z,8.57
2018-10-01T10:48:30.789Z,9.87
2018-10-01T10:50:58.173Z,8.20
2018-10-01T10:53:25.523Z,8.73
2018-10-01T10:55:52.863Z,8.00
2018-10-01T10:58:20.182Z,7.50
2018-10-01T11:00:47.546Z,7.33
2018-10-01T11:03:14.863Z,7.80
2018-10-01T11:05:43.493Z,7.50
2018-10-01T11:08:12.424Z,8.83
2018-10-01T11:10:40.343Z,9.63
2018-10-01T11:13:07.764Z,13.57
2018-10-01T11:15:35.121Z,7.50
2018-10-01T11:18:02.508Z,7.60
2018-10-01T11:20:29.911Z,8.20
2018-10-01T11:22:57.246Z,7.10
2018-10-01T11:25:24.620Z,7.20
2018-10-01T11:27:52.002Z,5.17
2018-10-01T11:30:19.360Z,5.40
2018-10-01T11:32:46.819Z,4.03
2018-10-01T11:35:14.560Z,4.90
2018-10-01T11:37:42.869Z,4.33
2018-10-01T11:40:10.549Z,4.60
2018-10-01T11:42:37.950Z,3.70
2018-10-01T11:45:05.658Z,4.67
2018-10-01T11:47:32.974Z,3.77
2018-10-01T11:50:00.307Z,4.37
2018-10-01T11:52:27.879Z,5.40
2018-10-01T11:54:55.210Z,4.43
2018-10-01T11:57:22.627Z,4.03
2018-10-01T11:59:49.943Z,3.20
2018-10-01T12:02:17.319Z,3.67
2018-10-01T12:04:45.346Z,2.90
2018-10-01T12:07:14.038Z,3.60
2018-10-01T12:09:42.296Z,3.20
2018-10-01T12:12:09.722Z,3.10
2018-10-01T12:14:37.077Z,2.90
2018-10-01T12:17:04.452Z,3.00
2018-10-01T12:19:31.801Z,3.60
2018-10-01T12:21:59.192Z,3.37
2018-10-01T12:24:26.630Z,3.83
2018-10-01T12:26:53.976Z,2.72
2018-10-01T12:29:21.304Z,3.40
2018-10-01T12:31:48.643Z,3.17
2018-10-01T12:34:16.216Z,2.50
2018-10-01T12:36:44.775Z,3.50
2018-10-01T12:39:12.870Z,3.50
2018-10-01T12:41:40.288Z,3.55
2018-10-01T12:44:07.644Z,3.80
2018-10-01T12:46:35.019Z,3.67
2018-10-01T12:49:02.451Z,3.50
2018-10-01T12:51:29.899Z,3.20
2018-10-01T12:53:57.231Z,3.80
2018-10-01T12:56:24.564Z,3.50
2018-10-01T12:58:51.903Z,3.13
2018-10-01T13:01:19.237Z,3.63
2018-10-01T13:03:46.830Z,3.00
2018-10-01T13:06:15.375Z,3.17
2018-10-01T13:08:43.730Z,2.87
2018-10-01T13:11:11.126Z,3.60
2018-10-01T13:13:38.477Z,3.30
2018-10-01T13:18:28.623Z,3.80
2018-10-01T13:20:55.963Z,3.30
2018-10-01T13:23:23.352Z,2.43
2018-10-01T13:25:50.689Z,3.70
2018-10-01T13:28:18.069Z,4.17
2018-10-01T13:30:46.557Z,3.90
2018-10-01T13:33:14.926Z,2.70
2018-10-01T13:35:42.385Z,2.77
2018-10-01T13:38:09.903Z,2.27
2018-10-01T13:40:37.232Z,3.07
2018-10-01T13:43:04.606Z,2.63
2018-10-01T13:45:31.978Z,3.07
2018-10-01T13:47:59.370Z,2.57
2018-10-01T13:50:26.730Z,2.53
2018-10-01T13:52:54.089Z,1.90
2018-10-01T13:55:21.653Z,2.30
2018-10-01T13:57:49.046Z,2.20
2018-10-01T14:00:17.082Z,2.30
2018-10-01T14:02:45.788Z,2.30
2018-10-01T14:05:13.238Z,2.23
2018-10-01T14:07:40.627Z,2.10
2018-10-01T14:10:07.990Z,2.23
2018-10-01T14:12:35.327Z,1.80
2018-10-01T14:15:02.722Z,2.00
2018-10-01T14:17:30.106Z,1.90
2018-10-01T14:19:57.764Z,2.67
2018-10-01T14:22:24.927Z,1.90
2018-10-01T14:24:52.334Z,1.70
2018-10-01T14:27:19.654Z,1.57
2018-10-01T14:29:48.078Z,1.90
2018-10-01T14:32:17.912Z,1.73
2018-10-01T14:34:46.187Z,1.80
2018-10-01T14:37:13.646Z,2.20
2018-10-01T14:39:41.077Z,2.07
2018-10-01T14:42:08.426Z,2.17
2018-10-01T14:44:35.805Z,1.60
2018-10-01T14:47:03.184Z,1.55
2018-10-01T14:49:30.538Z,2.10
2018-10-01T14:51:57.903Z,1.50
2018-10-01T14:54:25.307Z,1.83
2018-10-01T14:56:52.707Z,1.53
2018-10-01T14:59:20.047Z,1.13
2018-10-01T15:01:48.863Z,2.10
2018-10-01T15:04:18.458Z,1.80
2018-10-01T15:06:47.432Z,1.80
2018-10-01T15:09:15.098Z,1.70
2018-10-01T15:11:42.487Z,1.53
2018-10-01T15:14:09.916Z,1.80
2018-10-01T15:16:37.277Z,1.40
2018-10-01T15:19:04.776Z,1.50
2018-10-01T15:21:32.413Z,1.43
2018-10-01T15:23:59.822Z,2.23
2018-10-01T15:26:27.222Z,2.20
2018-10-01T15:28:54.550Z,1.87
2018-10-01T15:31:22.295Z,1.40
2018-10-01T15:33:49.904Z,1.70
2018-10-01T15:36:18.422Z,1.30
2018-10-01T15:38:46.325Z,1.77
2018-10-01T15:41:13.773Z,1.20
2018-10-01T15:43:41.138Z,2.60
2018-10-01T15:46:08.554Z,2.00
2018-10-01T15:48:35.974Z,1.40
2018-10-01T15:51:03.342Z,1.57
2018-10-01T15:53:30.816Z,1.97
2018-10-01T15:55:58.279Z,1.13
2018-10-01T15:58:26.058Z,1.50
2018-10-01T16:00:53.413Z,2.40
2018-10-01T16:03:20.958Z,1.93
2018-10-01T16:05:48.288Z,1.27
2018-10-01T16:08:15.608Z,1.77
2018-10-01T16:10:43.352Z,1.50
2018-10-01T16:13:11.761Z,1.22
2018-10-01T16:15:39.421Z,1.60
2018-10-01T16:18:06.858Z,1.60
2018-10-01T16:20:34.240Z,1.83
2018-10-01T16:28:06.981Z,1.33
2018-10-01T16:30:34.376Z,1.83
2018-10-01T16:33:01.742Z,1.50
2018-10-01T16:35:29.106Z,1.60
2018-10-01T16:37:56.440Z,1.10
2018-10-01T16:40:23.844Z,2.47
2018-10-01T16:45:23.846Z,1.90
2018-10-01T16:47:51.252Z,2.10
2018-10-01T16:50:18.953Z,2.35
2018-10-01T16:52:46.484Z,2.27
2018-10-01T16:55:14.143Z,1.83
2018-10-01T16:57:42.517Z,1.60
2018-10-01T17:00:10.198Z,1.27
2018-10-01T17:02:37.593Z,1.03
2018-10-01T17:08:00.449Z,1.10
2018-10-01T17:10:27.847Z,1.40
2018-10-01T17:12:55.214Z,1.10
2018-10-01T17:15:22.680Z,1.53
2018-10-01T17:17:49.990Z,1.57
2018-10-01T17:20:17.399Z,1.37
2018-10-01T17:22:44.968Z,1.37
2018-10-01T17:25:13.628Z,1.40
2018-10-01T17:27:41.549Z,1.80
2018-10-01T17:30:08.967Z,1.10
2018-10-01T17:32:36.309Z,1.20
2018-10-01T17:35:03.706Z,1.53
2018-10-01T17:37:31.111Z,1.70
2018-10-01T17:39:58.456Z,1.57
2018-10-01T17:42:25.823Z,1.10
2018-10-01T17:44:53.183Z,1.57
2018-10-01T17:47:20.588Z,1.30
2018-10-01T17:49:47.939Z,1.27
2018-10-01T17:52:15.874Z,2.27
2018-10-01T17:54:44.212Z,0.97
2018-10-01T17:57:11.803Z,1.73
2018-10-01T17:59:39.167Z,0.90
2018-10-01T18:02:06.613Z,2.33
2018-10-01T18:04:33.960Z,2.17
2018-10-01T18:07:01.349Z,1.87
2018-10-01T18:09:28.701Z,1.30
2018-10-01T18:11:56.084Z,1.83
2018-10-01T18:14:23.467Z,1.53
2018-10-01T18:16:50.884Z,1.90
2018-10-01T18:19:18.645Z,2.23
2018-10-01T18:21:47.373Z,0.90
2018-10-01T18:24:15.721Z,1.20
2018-10-01T18:26:43.421Z,1.70
2018-10-01T18:29:11.368Z,1.50
2018-10-01T18:31:38.836Z,1.70
2018-10-01T18:34:06.225Z,1.53
2018-10-01T18:36:33.619Z,1.73
2018-10-01T18:39:01.011Z,2.30
2018-10-01T18:41:28.423Z,2.00
2018-10-01T18:43:55.876Z,2.40
2018-10-01T18:46:23.528Z,1.90
2018-10-01T18:48:50.982Z,1.47
2018-10-01T18:51:18.546Z,2.07
2018-10-01T18:53:46.956Z,2.10
2018-10-01T18:56:15.606Z,1.67
2018-10-01T18:58:43.583Z,1.60
2018-10-01T19:01:11.016Z,2.37
2018-10-01T19:03:38.454Z,1.80
2018-10-01T19:06:05.790Z,2.27
2018-10-01T19:08:33.174Z,3.07
2018-10-01T19:11:00.516Z,1.70
2018-10-01T19:13:27.886Z,1.70
2018-10-01T19:15:55.279Z,1.90
2018-10-01T19:18:22.713Z,1.30
2018-10-01T19:20:50.066Z,1.57
2018-10-01T19:23:18.668Z,2.00
2018-10-01T19:25:46.526Z,2.40
2018-10-01T19:28:13.959Z,1.93
2018-10-01T19:30:41.316Z,2.77
2018-10-01T19:33:08.698Z,1.90
2018-10-01T19:35:36.065Z,1.77
2018-10-01T19:38:03.463Z,1.83
2018-10-01T19:40:30.819Z,1.87
2018-10-01T19:42:58.196Z,2.83
2018-10-01T19:45:25.554Z,2.17
2018-10-01T19:47:52.968Z,1.37
2018-10-01T19:50:20.353Z,1.87
2018-10-01T19:52:49.674Z,2.10
2018-10-01T19:55:19.050Z,2.47
2018-10-01T19:57:48.910Z,2.20
2018-10-01T20:00:18.455Z,1.63
2018-10-01T20:02:46.294Z,2.60
2018-10-01T20:05:13.802Z,2.10
2018-10-01T20:07:41.136Z,1.67
2018-10-01T20:10:08.649Z,1.73
2018-10-01T20:12:35.969Z,1.90
2018-10-01T20:15:03.857Z,2.42
2018-10-01T20:17:31.172Z,2.50
2018-10-01T20:19:58.552Z,2.07
2018-10-01T20:22:25.966Z,2.20
2018-10-01T20:24:53.369Z,2.23
2018-10-01T20:27:21.156Z,2.27
2018-10-01T20:29:50.104Z,2.47
2018-10-01T20:32:17.611Z,2.13
2018-10-01T20:34:45.025Z,1.90
2018-10-01T20:37:12.464Z,2.20
2018-10-01T20:39:39.938Z,2.63
2018-10-01T20:42:07.354Z,2.73
2018-10-01T20:44:34.711Z,3.10
2018-10-01T20:47:02.085Z,2.30
2018-10-01T20:49:29.463Z,2.30
2018-10-01T20:51:56.885Z,2.53
2018-10-01T20:54:24.243Z,2.30
2018-10-01T20:56:51.887Z,2.10
2018-10-01T20:59:21.436Z,2.10
2018-10-01T21:01:49.242Z,2.90
2018-10-01T21:04:17.190Z,2.23
2018-10-01T21:06:44.550Z,2.60
2018-10-01T21:09:12.868Z,2.27
2018-10-01T21:11:40.462Z,2.40
2018-10-01T21:14:08.146Z,2.10
2018-10-01T21:16:35.747Z,1.80
2018-10-01T21:19:03.109Z,2.27
2018-10-01T21:21:30.489Z,1.77
2018-10-01T21:23:57.846Z,2.07
2018-10-01T21:26:25.238Z,2.57
2018-10-01T21:28:53.014Z,2.23
2018-10-01T21:31:20.851Z,1.73
2018-10-01T21:33:48.737Z,2.27
2018-10-01T21:36:16.146Z,2.13
2018-10-01T21:38:44.579Z,2.63
2018-10-01T21:41:12.062Z,2.30
2018-10-01T21:43:39.398Z,1.87
2018-10-01T21:46:07.048Z,2.20
2018-10-01T21:48:34.385Z,1.83
2018-10-01T21:51:01.779Z,1.83
2018-10-01T21:53:29.106Z,1.80
2018-10-01T21:55:56.492Z,2.10
2018-10-01T21:58:24.014Z,2.27
2018-10-01T22:00:58.556Z,2.70
2018-10-01T22:03:25.924Z,2.27
2018-10-01T22:05:53.604Z,2.67
2018-10-01T22:08:23.139Z,2.10
2018-10-01T22:10:51.851Z,3.30
2018-10-01T22:13:19.305Z,2.50
2018-10-01T22:15:47.615Z,2.83
2018-10-01T22:18:16.531Z,2.37
2018-10-01T22:20:43.906Z,2.50
2018-10-01T22:23:11.288Z,2.63
2018-10-01T22:25:38.638Z,2.37
2018-10-01T22:28:06.119Z,2.10
2018-10-01T22:30:33.471Z,2.40
2018-10-01T22:33:00.836Z,1.87
2018-10-01T22:35:28.248Z,2.10
2018-10-01T22:37:55.644Z,1.40
2018-10-01T22:40:24.311Z,2.03
2018-10-01T22:42:52.228Z,2.20
2018-10-01T22:45:19.835Z,2.50
2018-10-01T22:47:47.266Z,1.70
2018-10-01T22:50:14.631Z,2.50
2018-10-01T22:52:42.031Z,2.00
2018-10-01T22:55:09.373Z,1.80
2018-10-01T22:57:36.738Z,2.17
2018-10-01T23:00:04.142Z,1.80
2018-10-01T23:02:31.521Z,1.60
2018-10-01T23:04:58.871Z,3.70
2018-10-01T23:07:26.406Z,1.80
2018-10-01T23:09:54.713Z,2.10
2018-10-01T23:12:23.196Z,2.23
2018-10-01T23:14:50.709Z,2.00
2018-10-01T23:17:18.094Z,1.77
2018-10-01T23:19:45.456Z,1.90
2018-10-01T23:22:12.835Z,2.50
2018-10-01T23:24:40.240Z,2.70
2018-10-01T23:27:07.612Z,2.17
2018-10-01T23:29:34.949Z,2.27
2018-10-01T23:32:02.386Z,2.70
2018-10-01T23:34:29.742Z,2.40
2018-10-01T23:36:57.142Z,2.13
2018-10-01T23:39:25.921Z,2.87
2018-10-01T23:41:54.121Z,2.53
2018-10-01T23:44:21.713Z,1.97
2018-10-01T23:46:49.079Z,2.13
2018-10-01T23:49:16.430Z,2.70
2018-10-01T23:51:43.798Z,2.00
2018-10-01T23:54:11.192Z,1.87
2018-10-01T23:56:38.548Z,2.33
2018-10-01T23:59:06.012Z,1.93
